N395T KISP-KMTP
Flight info
| Callsign | N395T |
|---|---|
| Flight time | 0h 19m |
| Altitude | 7000 |
| Route | HTO |
| Aircraft | PC12/L-SDFGRWY/S |
Departure
| Time | 2026-04-20 22:14 |
|---|---|
| Airport | Long Island MacArthur Airport (KISP) |
Arrival
| Time | 2026-04-20 22:34 |
|---|---|
| Airport | Montauk Airport (KMTP) |
| Time | Latitude | Longitude | Altitude | Speed | Heading |
|---|---|---|---|---|---|
| 2026-04-20 21:42 | 40.79823 | -73.10892 | 91 ft | 0 kts | 92° |
| 2026-04-20 22:09 | 40.79812 | -73.10837 | 91 ft | 8 kts | 106° |
| 2026-04-20 22:09 | 40.79804 | -73.10755 | 91 ft | 8 kts | 90° |
| 2026-04-20 22:10 | 40.79849 | -73.10720 | 91 ft | 8 kts | 1° |
| 2026-04-20 22:10 | 40.79903 | -73.10719 | 91 ft | 7 kts | 0° |
| 2026-04-20 22:10 | 40.79956 | -73.10719 | 91 ft | 9 kts | 0° |
| 2026-04-20 22:10 | 40.80016 | -73.10680 | 92 ft | 12 kts | 91° |
| 2026-04-20 22:11 | 40.79952 | -73.10584 | 91 ft | 16 kts | 136° |
| 2026-04-20 22:11 | 40.79857 | -73.10459 | 91 ft | 25 kts | 136° |
| 2026-04-20 22:11 | 40.79736 | -73.10301 | 92 ft | 23 kts | 135° |
| 2026-04-20 22:11 | 40.79632 | -73.10163 | 94 ft | 22 kts | 135° |
| 2026-04-20 22:12 | 40.79515 | -73.10008 | 93 ft | 25 kts | 134° |
| 2026-04-20 22:12 | 40.79391 | -73.09844 | 91 ft | 26 kts | 135° |
| 2026-04-20 22:12 | 40.79273 | -73.09690 | 94 ft | 23 kts | 135° |
| 2026-04-20 22:12 | 40.79166 | -73.09545 | 92 ft | 15 kts | 127° |
| 2026-04-20 22:13 | 40.79169 | -73.09494 | 91 ft | 4 kts | 47° |
| 2026-04-20 22:13 | 40.79173 | -73.09488 | 91 ft | 1 kts | 44° |
| 2026-04-20 22:13 | 40.79194 | -73.09462 | 92 ft | 7 kts | 43° |
| 2026-04-20 22:13 | 40.79245 | -73.09453 | 91 ft | 9 kts | 327° |
| 2026-04-20 22:14 | 40.79393 | -73.09641 | 91 ft | 54 kts | 315° |
| 2026-04-20 22:14 | 40.79742 | -73.10108 | 148 ft | 82 kts | 314° |
| 2026-04-20 22:14 | 40.80165 | -73.10681 | 396 ft | 93 kts | 314° |
| 2026-04-20 22:14 | 40.80693 | -73.11210 | 734 ft | 102 kts | 335° |
| 2026-04-20 22:15 | 40.81478 | -73.11367 | 1029 ft | 128 kts | 2° |
| 2026-04-20 22:15 | 40.82376 | -73.11019 | 1495 ft | 140 kts | 22° |
| 2026-04-20 22:15 | 40.83163 | -73.10163 | 1974 ft | 156 kts | 47° |
| 2026-04-20 22:15 | 40.83645 | -73.08803 | 2347 ft | 170 kts | 66° |
| 2026-04-20 22:16 | 40.83925 | -73.07234 | 2691 ft | 180 kts | 76° |
| 2026-04-20 22:16 | 40.84140 | -73.05575 | 3054 ft | 185 kts | 77° |
| 2026-04-20 22:16 | 40.84330 | -73.03889 | 3451 ft | 186 kts | 78° |
| 2026-04-20 22:16 | 40.84523 | -73.02197 | 3840 ft | 187 kts | 78° |
| 2026-04-20 22:17 | 40.84715 | -73.00491 | 4236 ft | 188 kts | 78° |
| 2026-04-20 22:17 | 40.84900 | -72.98774 | 4634 ft | 189 kts | 78° |
| 2026-04-20 22:17 | 40.85083 | -72.97045 | 5036 ft | 190 kts | 77° |
| 2026-04-20 22:17 | 40.85276 | -72.95308 | 5426 ft | 192 kts | 77° |
| 2026-04-20 22:18 | 40.85463 | -72.93585 | 5816 ft | 193 kts | 77° |
| 2026-04-20 22:18 | 40.85651 | -72.91826 | 6213 ft | 194 kts | 78° |
| 2026-04-20 22:18 | 40.85844 | -72.90021 | 6495 ft | 202 kts | 78° |
| 2026-04-20 22:18 | 40.86042 | -72.88154 | 6753 ft | 208 kts | 78° |
| 2026-04-20 22:19 | 40.86244 | -72.86248 | 6997 ft | 213 kts | 79° |
| 2026-04-20 22:19 | 40.86457 | -72.84241 | 7000 ft | 227 kts | 79° |
| 2026-04-20 22:19 | 40.86678 | -72.82137 | 7003 ft | 236 kts | 79° |
| 2026-04-20 22:19 | 40.86906 | -72.79962 | 7009 ft | 242 kts | 79° |
| 2026-04-20 22:20 | 40.87139 | -72.77743 | 7006 ft | 246 kts | 79° |
| 2026-04-20 22:20 | 40.87376 | -72.75501 | 7005 ft | 249 kts | 79° |
| 2026-04-20 22:20 | 40.87617 | -72.73218 | 7017 ft | 250 kts | 79° |
| 2026-04-20 22:20 | 40.87856 | -72.70939 | 7020 ft | 251 kts | 79° |
| 2026-04-20 22:21 | 40.88014 | -72.69428 | 7017 ft | 251 kts | 79° |
| 2026-04-20 22:21 | 40.88252 | -72.67145 | 7018 ft | 251 kts | 79° |
| 2026-04-20 22:21 | 40.88566 | -72.64126 | 7016 ft | 249 kts | 79° |
| 2026-04-20 22:21 | 40.88726 | -72.62597 | 7017 ft | 249 kts | 79° |
| 2026-04-20 22:22 | 40.89042 | -72.59558 | 6913 ft | 252 kts | 79° |
| 2026-04-20 22:22 | 40.89200 | -72.58038 | 6818 ft | 254 kts | 79° |
| 2026-04-20 22:22 | 40.89440 | -72.55713 | 6670 ft | 256 kts | 79° |
| 2026-04-20 22:22 | 40.89681 | -72.53372 | 6511 ft | 257 kts | 79° |
| 2026-04-20 22:23 | 40.89919 | -72.51067 | 6352 ft | 256 kts | 79° |
| 2026-04-20 22:23 | 40.90158 | -72.48729 | 6190 ft | 250 kts | 79° |
| 2026-04-20 22:23 | 40.90389 | -72.46472 | 6025 ft | 245 kts | 78° |
| 2026-04-20 22:23 | 40.90617 | -72.44255 | 5866 ft | 242 kts | 79° |
| 2026-04-20 22:24 | 40.90842 | -72.42061 | 5702 ft | 240 kts | 78° |
| 2026-04-20 22:24 | 40.91065 | -72.39879 | 5549 ft | 238 kts | 78° |
| 2026-04-20 22:24 | 40.91285 | -72.37719 | 5391 ft | 236 kts | 78° |
| 2026-04-20 22:24 | 40.91503 | -72.35576 | 5239 ft | 235 kts | 78° |
| 2026-04-20 22:25 | 40.91718 | -72.33468 | 5084 ft | 234 kts | 78° |
| 2026-04-20 22:25 | 40.91948 | -72.31355 | 5008 ft | 227 kts | 73° |
| 2026-04-20 22:25 | 40.92257 | -72.29338 | 5008 ft | 222 kts | 75° |
| 2026-04-20 22:25 | 40.92521 | -72.27317 | 4776 ft | 226 kts | 76° |
| 2026-04-20 22:26 | 40.92797 | -72.25254 | 4428 ft | 229 kts | 75° |
| 2026-04-20 22:26 | 40.93087 | -72.23176 | 4093 ft | 231 kts | 75° |
| 2026-04-20 22:26 | 40.93375 | -72.21109 | 3753 ft | 224 kts | 75° |
| 2026-04-20 22:27 | 40.93891 | -72.17348 | 3064 ft | 195 kts | 75° |
| 2026-04-20 22:27 | 40.94132 | -72.15626 | 2752 ft | 185 kts | 75° |
| 2026-04-20 22:27 | 40.94360 | -72.13992 | 2561 ft | 178 kts | 75° |
| 2026-04-20 22:27 | 40.94584 | -72.12395 | 2378 ft | 182 kts | 75° |
| 2026-04-20 22:28 | 40.94846 | -72.10674 | 2202 ft | 196 kts | 70° |
| 2026-04-20 22:28 | 40.95557 | -72.09154 | 2085 ft | 197 kts | 43° |
| 2026-04-20 22:28 | 40.96449 | -72.07903 | 1948 ft | 187 kts | 41° |
| 2026-04-20 22:28 | 40.97349 | -72.06658 | 1882 ft | 189 kts | 42° |
| 2026-04-20 22:29 | 40.98236 | -72.05403 | 1836 ft | 183 kts | 43° |
| 2026-04-20 22:29 | 40.99050 | -72.04239 | 1779 ft | 162 kts | 42° |
| 2026-04-20 22:29 | 40.99842 | -72.03156 | 1706 ft | 167 kts | 37° |
| 2026-04-20 22:29 | 41.00798 | -72.02295 | 1712 ft | 166 kts | 21° |
| 2026-04-20 22:30 | 41.01876 | -72.01855 | 1782 ft | 159 kts | 6° |
| 2026-04-20 22:30 | 41.02967 | -72.01583 | 1820 ft | 164 kts | 9° |
| 2026-04-20 22:30 | 41.04098 | -72.01136 | 1767 ft | 175 kts | 17° |
| 2026-04-20 22:30 | 41.05222 | -72.00411 | 1694 ft | 186 kts | 27° |
| 2026-04-20 22:31 | 41.06312 | -71.99427 | 1624 ft | 186 kts | 32° |
| 2026-04-20 22:31 | 41.06889 | -71.98852 | 1614 ft | 179 kts | 33° |
| 2026-04-20 22:31 | 41.07779 | -71.97928 | 1465 ft | 168 kts | 35° |
| 2026-04-20 22:31 | 41.08633 | -71.96949 | 1341 ft | 165 kts | 39° |
| 2026-04-20 22:32 | 41.09433 | -71.95848 | 1292 ft | 156 kts | 45° |
| 2026-04-20 22:32 | 41.10024 | -71.94832 | 1288 ft | 128 kts | 51° |
| 2026-04-20 22:32 | 41.10462 | -71.93842 | 1168 ft | 121 kts | 61° |
| 2026-04-20 22:32 | 41.10608 | -71.92829 | 1005 ft | 106 kts | 91° |
| 2026-04-20 22:33 | 41.10379 | -71.91894 | 829 ft | 107 kts | 114° |
| 2026-04-20 22:33 | 41.09970 | -71.91112 | 692 ft | 102 kts | 138° |
| 2026-04-20 22:33 | 41.09381 | -71.90641 | 505 ft | 97 kts | 165° |
| 2026-04-20 22:33 | 41.08737 | -71.90721 | 333 ft | 94 kts | 206° |
| 2026-04-20 22:34 | 41.08230 | -71.91257 | 119 ft | 91 kts | 228° |
| 2026-04-20 22:34 | 41.07820 | -71.91841 | 12 ft | 80 kts | 227° |
| 2026-04-20 22:34 | 41.07538 | -71.92239 | 15 ft | 30 kts | 227° |
| 2026-04-20 22:34 | 41.07459 | -71.92351 | 14 ft | 11 kts | 227° |
| 2026-04-20 22:35 | 41.07432 | -71.92388 | 15 ft | 6 kts | 225° |
| 2026-04-20 22:35 | 41.07385 | -71.92414 | 13 ft | 7 kts | 141° |
| 2026-04-20 22:35 | 41.07347 | -71.92382 | 13 ft | 5 kts | 190° |
| 2026-04-20 22:35 | 41.07332 | -71.92406 | 12 ft | 0 kts | 238° |